Time;durP1;ratioP1;P1;durP2;ratioP2;P2;SDS_P1;SDS_P2;PMS_P1;PMS_P2;Temp;Humidity;BMP_temperature;BMP_pressure;BME280_temperature;BME280_humidity;BME280_pressure;Samples;Min_cycle;Max_cycle;Signal;HPM_P1;HPM_P2
2022/12/11 00:00:07;;;;;;;163.98;29.25;;;0.80;99.90;;;;;;4992181;28;20026;-72
2022/12/11 00:02:32;;;;;;;149.27;28.88;;;0.80;99.90;;;;;;4986331;28;20113;-72
2022/12/11 00:04:58;;;;;;;149.05;29.10;;;0.80;99.90;;;;;;4995028;28;20117;-72
2022/12/11 00:07:23;;;;;;;144.05;26.65;;;0.80;99.90;;;;;;4981129;28;20027;-72
2022/12/11 00:09:49;;;;;;;149.45;27.20;;;0.80;99.90;;;;;;4991769;28;20034;-72
2022/12/11 00:12:15;;;;;;;131.43;26.45;;;0.90;99.90;;;;;;4993686;28;20509;-72
2022/12/11 00:14:40;;;;;;;151.85;29.33;;;0.90;99.90;;;;;;4993918;28;20049;-72
2022/12/11 00:17:06;;;;;;;145.60;28.83;;;0.90;99.90;;;;;;4995588;28;20420;-72
2022/12/11 00:19:31;;;;;;;137.73;27.83;;;0.90;99.90;;;;;;4986854;28;20050;-72
2022/12/11 00:21:57;;;;;;;141.75;27.30;;;0.90;99.90;;;;;;4993393;28;20030;-72
2022/12/11 00:24:22;;;;;;;137.77;28.65;;;0.90;99.90;;;;;;4988281;28;20137;-72
2022/12/11 00:26:48;;;;;;;139.18;27.55;;;0.90;99.90;;;;;;4988518;28;20022;-72
2022/12/11 00:29:13;;;;;;;145.25;29.80;;;0.90;99.90;;;;;;4988473;28;20144;-72
2022/12/11 00:31:40;;;;;;;149.50;28.80;;;1.00;99.90;;;;;;4985433;28;21019;-72
2022/12/11 00:34:06;;;;;;;150.15;29.80;;;1.00;99.90;;;;;;4990883;28;20034;-72
2022/12/11 00:36:32;;;;;;;154.82;29.33;;;1.00;99.90;;;;;;4995010;28;20368;-72
2022/12/11 00:38:58;;;;;;;152.82;28.92;;;1.00;99.90;;;;;;4990396;28;20100;-72
2022/12/11 00:41:23;;;;;;;165.32;30.35;;;1.00;99.90;;;;;;4988912;28;20113;-72
2022/12/11 00:43:49;;;;;;;158.02;29.13;;;1.00;99.90;;;;;;5006953;28;20110;-72
2022/12/11 00:46:15;;;;;;;237.85;32.47;;;1.00;99.90;;;;;;4991650;28;20038;-72
2022/12/11 00:48:40;;;;;;;163.55;30.30;;;1.00;99.90;;;;;;4986880;28;20049;-72
2022/12/11 00:51:06;;;;;;;196.38;27.58;;;1.00;99.90;;;;;;4981079;28;20031;-72
2022/12/11 00:53:32;;;;;;;206.23;28.42;;;0.90;99.90;;;;;;5001260;28;20022;-72
2022/12/11 00:55:57;;;;;;;166.20;25.80;;;0.90;99.90;;;;;;4998098;28;20033;-72
2022/12/11 00:58:23;;;;;;;269.60;31.10;;;0.90;99.90;;;;;;4990735;28;20019;-72
2022/12/11 01:00:49;;;;;;;221.52;28.65;;;0.90;99.90;;;;;;4988851;28;20030;-72
2022/12/11 01:03:15;;;;;;;201.45;26.92;;;0.90;99.90;;;;;;4989710;28;20112;-72
2022/12/11 01:05:41;;;;;;;194.43;29.48;;;0.90;99.90;;;;;;4994547;28;20129;-72
2022/12/11 01:08:07;;;;;;;209.13;27.27;;;0.80;99.90;;;;;;4988000;28;20534;-72
2022/12/11 01:10:33;;;;;;;208.48;26.67;;;0.80;99.90;;;;;;4988067;28;20033;-72
2022/12/11 01:13:05;;;;;;;288.58;29.25;;;0.90;99.90;;;;;;4987123;28;20030;-74
2022/12/11 01:15:33;;;;;;;188.15;24.88;;;0.90;99.90;;;;;;4992107;28;20026;-73
2022/12/11 01:17:59;;;;;;;195.98;27.30;;;0.80;99.90;;;;;;4989227;28;20081;-72
2022/12/11 01:20:26;;;;;;;257.05;28.08;;;0.80;99.90;;;;;;4991436;28;20414;-73
2022/12/11 01:22:57;;;;;;;237.20;28.88;;;0.90;99.90;;;;;;5005118;28;20022;-72
2022/12/11 01:25:24;;;;;;;176.25;28.27;;;0.90;99.90;;;;;;4994368;28;20034;-72
2022/12/11 01:27:51;;;;;;;269.52;31.08;;;0.90;99.90;;;;;;4993683;28;20026;-71
2022/12/11 01:30:17;;;;;;;227.75;27.52;;;0.90;99.90;;;;;;4995226;28;20038;-72
2022/12/11 01:32:43;;;;;;;247.27;30.02;;;0.90;99.90;;;;;;4991121;28;20026;-71
2022/12/11 01:35:11;;;;;;;204.68;27.15;;;0.80;99.90;;;;;;4997536;28;20035;-72
2022/12/11 01:37:36;;;;;;;184.18;26.30;;;0.80;99.90;;;;;;4990806;28;20069;-72
2022/12/11 01:40:03;;;;;;;269.33;32.85;;;0.90;99.90;;;;;;4995311;28;20076;-72
2022/12/11 01:42:29;;;;;;;196.02;26.58;;;0.90;99.90;;;;;;4988112;28;21604;-73
2022/12/11 01:45:23;;;;;;;271.92;34.03;;;0.90;99.90;;;;;;4992965;28;20045;-72
2022/12/11 01:47:50;;;;;;;224.73;30.67;;;0.90;99.90;;;;;;4993344;28;20035;-72
2022/12/11 01:50:16;;;;;;;240.38;32.90;;;0.80;99.90;;;;;;4994290;28;20085;-72
2022/12/11 01:52:45;;;;;;;250.80;31.30;;;0.80;99.90;;;;;;4997966;28;20026;-72
2022/12/11 01:55:11;;;;;;;201.63;29.40;;;0.90;99.90;;;;;;4992190;28;20120;-71
2022/12/11 01:57:41;;;;;;;266.25;29.23;;;0.90;99.90;;;;;;4994004;28;20026;-71
2022/12/11 02:00:07;;;;;;;268.48;32.20;;;0.90;99.90;;;;;;4996406;28;20032;-72
2022/12/11 02:02:33;;;;;;;257.30;32.97;;;0.90;99.90;;;;;;4987835;28;20524;-72
2022/12/11 02:05:01;;;;;;;253.50;29.55;;;0.90;99.90;;;;;;4997132;28;20038;-72
2022/12/11 02:07:29;;;;;;;228.75;28.52;;;0.90;99.90;;;;;;4991373;28;20027;-72
2022/12/11 02:09:55;;;;;;;243.68;31.75;;;0.90;99.90;;;;;;4989325;28;20031;-72
2022/12/11 02:12:30;;;;;;;218.93;32.88;;;0.90;99.90;;;;;;4998120;28;20041;-72
2022/12/11 02:15:09;;;;;;;246.38;30.63;;;0.90;99.90;;;;;;5000772;28;20521;-72
2022/12/11 02:17:42;;;;;;;236.13;28.23;;;0.90;99.90;;;;;;4995466;28;20398;-72
2022/12/11 02:20:16;;;;;;;;;;;0.90;99.90;;;;;;4989659;28;20092;-73
2022/12/11 02:23:17;;;;;;;325.48;31.15;;;0.90;99.90;;;;;;4988387;28;19918;-72
2022/12/11 02:26:03;;;;;;;211.93;32.15;;;0.90;99.90;;;;;;4991359;28;20034;-72
2022/12/11 02:28:33;;;;;;;211.88;28.52;;;0.90;99.90;;;;;;4987871;28;20134;-72
2022/12/11 02:31:14;;;;;;;225.30;30.27;;;0.90;99.90;;;;;;4979917;28;20617;-72
2022/12/11 02:34:01;;;;;;;237.63;31.67;;;1.00;99.90;;;;;;4999290;28;20045;-72
2022/12/11 02:36:32;;;;;;;145.85;25.15;;;1.00;99.90;;;;;;4982495;28;20924;-72
2022/12/11 02:39:00;;;;;;;206.05;31.48;;;1.00;99.90;;;;;;4993080;28;20037;-72
2022/12/11 02:41:27;;;;;;;191.60;32.05;;;1.00;99.90;;;;;;4992781;28;20029;-72
2022/12/11 02:43:56;;;;;;;201.80;32.78;;;1.00;99.90;;;;;;4992848;28;20121;-72
2022/12/11 02:46:23;;;;;;;208.00;35.17;;;1.00;99.90;;;;;;4992419;28;20058;-72
2022/12/11 02:48:51;;;;;;;212.55;32.38;;;1.00;99.90;;;;;;4992983;28;20088;-72
2022/12/11 02:51:22;;;;;;;201.70;32.10;;;1.00;99.90;;;;;;4984200;28;20033;-71
2022/12/11 02:53:50;;;;;;;202.05;34.92;;;1.00;99.90;;;;;;4989567;28;20030;-71
2022/12/11 02:56:22;;;;;;;197.10;33.95;;;1.00;99.90;;;;;;4989630;28;20065;-71
2022/12/11 02:58:54;;;;;;;189.93;31.77;;;1.10;99.90;;;;;;4990717;28;20030;-72
2022/12/11 03:01:20;;;;;;;206.98;33.38;;;1.10;99.90;;;;;;4986295;28;20389;-72
2022/12/11 03:03:45;;;;;;;196.23;32.58;;;1.10;99.90;;;;;;4987022;28;20030;-72
2022/12/11 03:06:17;;;;;;;178.45;31.23;;;1.10;99.90;;;;;;4992267;28;20018;-71
2022/12/11 03:08:43;;;;;;;168.50;30.63;;;1.10;99.90;;;;;;4995361;28;20073;-72
2022/12/11 03:11:11;;;;;;;168.68;31.45;;;1.10;99.90;;;;;;4987345;28;20030;-71
2022/12/11 03:13:40;;;;;;;187.40;32.95;;;1.10;99.90;;;;;;4999887;28;20062;-72
2022/12/11 03:16:09;;;;;;;185.52;35.08;;;1.20;99.90;;;;;;4994232;28;20117;-72
2022/12/11 03:18:57;;;;;;;198.88;34.80;;;1.10;99.90;;;;;;4985011;28;20378;-72
2022/12/11 03:21:30;;;;;;;199.02;33.45;;;1.10;99.90;;;;;;4969582;28;20104;-72
2022/12/11 03:23:59;;;;;;;;;;;1.10;99.90;;;;;;4965483;28;20026;-72
2022/12/11 03:26:25;;;;;;;190.00;32.47;;;1.10;99.90;;;;;;4967691;28;19910;-72
2022/12/11 03:28:58;;;;;;;161.13;32.17;;;1.10;99.90;;;;;;4971925;28;20054;-72
2022/12/11 03:31:35;;;;;;;160.00;33.05;;;1.20;99.90;;;;;;4968176;28;20430;-72
2022/12/11 03:34:06;;;;;;;171.10;30.20;;;1.20;99.90;;;;;;4965845;28;20038;-72
2022/12/11 03:36:36;;;;;;;174.82;34.05;;;1.20;99.90;;;;;;4971987;28;20034;-72
2022/12/11 03:39:11;;;;;;;169.73;35.30;;;1.20;99.90;;;;;;4969600;28;20018;-72
2022/12/11 03:41:38;;;;;;;171.85;32.20;;;1.20;99.90;;;;;;4970657;28;20063;-72
2022/12/11 03:44:05;;;;;;;158.27;34.17;;;1.20;99.90;;;;;;4971870;28;20034;-72
2022/12/11 03:46:35;;;;;;;178.18;33.35;;;1.20;99.90;;;;;;4970624;28;20023;-71
2022/12/11 03:49:06;;;;;;;152.00;31.80;;;1.30;99.90;;;;;;4969705;28;20087;-71
2022/12/11 03:51:33;;;;;;;159.18;34.63;;;1.30;99.90;;;;;;4970714;28;20054;-73
2022/12/11 03:53:59;;;;;;;147.20;30.33;;;1.30;99.90;;;;;;4963424;28;20114;-73
2022/12/11 03:56:27;;;;;;;156.05;32.17;;;1.30;99.90;;;;;;4971335;28;20023;-72
2022/12/11 03:58:53;;;;;;;164.45;32.08;;;1.30;99.90;;;;;;4971556;28;20034;-72
2022/12/11 04:01:18;;;;;;;167.43;32.83;;;1.30;99.90;;;;;;4966501;28;20035;-72
2022/12/11 04:03:44;;;;;;;154.60;32.80;;;1.30;99.90;;;;;;4969433;28;20031;-72
2022/12/11 04:06:09;;;;;;;157.38;31.73;;;1.30;99.90;;;;;;4967589;28;20072;-72
2022/12/11 04:08:35;;;;;;;167.20;33.38;;;1.30;99.90;;;;;;4970502;28;20054;-72
2022/12/11 04:11:44;;;;;;;155.00;31.70;;;1.30;99.90;;;;;;4966351;28;20065;-71
2022/12/11 04:15:00;;;;;;;151.45;29.02;;;1.40;99.90;;;;;;4979222;28;20049;-72
2022/12/11 04:16:36;;;;;;;126.50;28.15;;;1.40;99.90;;;;;;4967737;28;20023;-72
2022/12/11 04:24:30;;;;;;;137.07;30.30;;;1.30;99.90;;;;;;4992695;28;20418;-72
2022/12/11 04:26:57;;;;;;;127.57;29.77;;;1.30;99.90;;;;;;4990783;28;20053;-72
2022/12/11 04:29:23;;;;;;;130.95;31.02;;;1.40;99.90;;;;;;4989570;28;20105;-72
2022/12/11 04:31:49;;;;;;;132.25;31.63;;;1.30;99.90;;;;;;4988551;28;20050;-72
2022/12/11 04:34:15;;;;;;;133.13;31.52;;;1.40;99.90;;;;;;4984959;28;20045;-72
2022/12/11 04:36:41;;;;;;;123.38;29.60;;;1.30;99.90;;;;;;4990218;28;20038;-72
2022/12/11 04:39:06;;;;;;;121.72;30.60;;;1.30;99.90;;;;;;4989929;28;20130;-71
2022/12/11 04:41:33;;;;;;;119.40;30.40;;;1.40;99.90;;;;;;4987465;28;20026;-72
2022/12/11 04:43:58;;;;;;;112.72;26.30;;;1.40;99.90;;;;;;4991247;28;20072;-72
2022/12/11 04:46:24;;;;;;;106.95;30.00;;;1.40;99.90;;;;;;4991665;28;20058;-72
2022/12/11 04:48:51;;;;;;;105.88;29.13;;;1.40;99.90;;;;;;4987649;28;20049;-72
2022/12/11 04:51:17;;;;;;;112.38;29.70;;;1.40;99.90;;;;;;4989118;28;20041;-72
2022/12/11 04:53:44;;;;;;;111.43;29.45;;;1.40;99.90;;;;;;4987880;28;20022;-72
2022/12/11 04:56:13;;;;;;;123.53;31.23;;;1.40;99.90;;;;;;4990137;28;20022;-72
2022/12/11 04:58:39;;;;;;;108.30;28.92;;;1.40;99.90;;;;;;4987279;28;20382;-72
2022/12/11 05:01:09;;;;;;;103.72;29.60;;;1.50;99.90;;;;;;4994997;28;20085;-72
2022/12/11 05:03:35;;;;;;;93.07;25.70;;;1.50;99.90;;;;;;4987661;28;20053;-72
2022/12/11 05:06:00;;;;;;;85.03;25.73;;;1.50;99.90;;;;;;4989445;28;20077;-73
2022/12/11 05:08:26;;;;;;;80.68;24.02;;;1.40;99.90;;;;;;4986341;28;20034;-72
2022/12/11 05:10:57;;;;;;;81.00;25.08;;;1.40;99.90;;;;;;4993805;28;20045;-71
2022/12/11 05:13:23;;;;;;;89.78;26.20;;;1.40;99.90;;;;;;4987465;28;20475;-72
2022/12/11 05:15:48;;;;;;;86.85;25.83;;;1.40;99.90;;;;;;4992384;28;20034;-73
2022/12/11 05:18:14;;;;;;;92.40;26.90;;;1.40;99.90;;;;;;4990090;28;20023;-72
2022/12/11 05:20:40;;;;;;;85.10;27.00;;;1.40;99.90;;;;;;4989129;28;20465;-72
2022/12/11 05:23:05;;;;;;;81.85;25.50;;;1.40;99.90;;;;;;4989724;28;20407;-72
2022/12/11 05:25:31;;;;;;;88.38;26.77;;;1.50;99.90;;;;;;4996483;28;20370;-72
2022/12/11 05:27:56;;;;;;;90.82;27.90;;;1.50;99.90;;;;;;5005490;28;20022;-72
2022/12/11 05:30:22;;;;;;;82.40;25.88;;;1.40;99.90;;;;;;4980539;28;20367;-72
2022/12/11 05:32:47;;;;;;;86.15;26.77;;;1.40;99.90;;;;;;4999307;28;20029;-72
2022/12/11 05:35:13;;;;;;;75.55;25.42;;;1.40;99.90;;;;;;4990162;28;20026;-72
2022/12/11 05:37:38;;;;;;;81.75;25.85;;;1.50;99.90;;;;;;4993603;28;20050;-72
2022/12/11 05:40:05;;;;;;;79.13;25.67;;;1.50;99.90;;;;;;4998086;28;20065;-72
2022/12/11 05:42:31;;;;;;;87.13;23.40;;;1.50;99.90;;;;;;5006591;28;20030;-72
2022/12/11 05:44:57;;;;;;;73.75;23.38;;;1.50;99.90;;;;;;4987661;28;20142;-72
2022/12/11 05:47:22;;;;;;;67.65;23.90;;;1.50;99.90;;;;;;5001817;28;20113;-72
2022/12/11 05:49:48;;;;;;;68.05;23.88;;;1.50;99.90;;;;;;4989243;28;20473;-72
2022/12/11 05:52:15;;;;;;;63.85;22.65;;;1.40;99.90;;;;;;4993224;28;20041;-72
2022/12/11 05:54:41;;;;;;;70.38;23.55;;;1.40;99.90;;;;;;4988471;28;20037;-72
2022/12/11 05:57:06;;;;;;;61.17;22.02;;;1.40;99.90;;;;;;4994068;28;20422;-72
2022/12/11 05:59:32;;;;;;;59.78;20.67;;;1.40;99.90;;;;;;4992327;28;20108;-73
2022/12/11 06:01:58;;;;;;;53.65;19.42;;;1.40;99.90;;;;;;4988199;28;20129;-72
2022/12/11 06:04:23;;;;;;;61.42;21.30;;;1.40;99.90;;;;;;4996391;28;20034;-72
2022/12/11 06:06:49;;;;;;;48.95;19.13;;;1.40;99.90;;;;;;4990448;28;20037;-72
2022/12/11 06:09:16;;;;;;;46.80;17.85;;;1.40;99.90;;;;;;4993746;28;20026;-72
2022/12/11 06:11:42;;;;;;;49.60;20.60;;;1.40;99.90;;;;;;4985458;28;20037;-73
2022/12/11 06:14:09;;;;;;;49.40;19.52;;;1.40;99.90;;;;;;4993906;28;20022;-72
2022/12/11 06:16:34;;;;;;;50.67;19.58;;;1.40;99.90;;;;;;4991872;28;20031;-72
2022/12/11 06:19:00;;;;;;;53.40;19.52;;;1.40;99.90;;;;;;4997211;28;20034;-72
2022/12/11 06:21:28;;;;;;;55.15;20.90;;;1.40;99.90;;;;;;4985809;28;20090;-72
2022/12/11 06:23:56;;;;;;;59.05;21.90;;;1.40;99.90;;;;;;4989708;28;20023;-72
2022/12/11 06:26:22;;;;;;;51.50;19.67;;;1.40;99.90;;;;;;4988973;28;20038;-72
2022/12/11 06:28:48;;;;;;;52.08;19.90;;;1.40;99.90;;;;;;4992265;28;20030;-72
2022/12/11 06:31:14;;;;;;;53.03;20.85;;;1.40;99.90;;;;;;4990666;28;20112;-72
2022/12/11 06:33:40;;;;;;;54.65;21.00;;;1.40;99.90;;;;;;4992579;28;20462;-72
2022/12/11 06:36:09;;;;;;;47.30;19.55;;;1.40;99.90;;;;;;4991236;28;20041;-72
2022/12/11 06:38:35;;;;;;;50.33;20.27;;;1.40;99.90;;;;;;4992589;28;20045;-73
2022/12/11 06:41:03;;;;;;;54.63;20.38;;;1.40;99.90;;;;;;4997655;28;20500;-72
2022/12/11 06:43:30;;;;;;;43.28;18.27;;;1.40;99.90;;;;;;4991686;28;20022;-72
2022/12/11 06:45:56;;;;;;;50.22;19.67;;;1.30;99.90;;;;;;4987265;28;20077;-72
2022/12/11 06:48:22;;;;;;;43.45;17.10;;;1.40;99.90;;;;;;4987149;28;20454;-71
2022/12/11 06:50:48;;;;;;;44.30;18.08;;;1.40;99.90;;;;;;4987879;28;20042;-73
2022/12/11 06:53:14;;;;;;;51.33;20.02;;;1.40;99.90;;;;;;5001121;28;20040;-72
2022/12/11 06:55:40;;;;;;;44.28;17.92;;;1.40;99.90;;;;;;4990948;28;20031;-72
2022/12/11 06:58:06;;;;;;;40.45;17.05;;;1.40;99.90;;;;;;4990149;28;20122;-72
2022/12/11 07:00:34;;;;;;;43.38;17.42;;;1.40;99.90;;;;;;4988252;28;20031;-73
2022/12/11 07:03:00;;;;;;;45.85;17.00;;;1.40;99.90;;;;;;4983645;28;20125;-73
2022/12/11 07:05:25;;;;;;;41.70;18.27;;;1.40;99.90;;;;;;4982580;28;20046;-72
2022/12/11 07:07:53;;;;;;;48.40;17.45;;;1.30;99.90;;;;;;5003149;28;20057;-72
2022/12/11 07:10:19;;;;;;;42.58;17.85;;;1.30;99.90;;;;;;4990068;28;20034;-72
2022/12/11 07:12:45;;;;;;;40.78;17.88;;;1.30;99.90;;;;;;4980222;28;20466;-74
2022/12/11 07:15:10;;;;;;;43.65;17.50;;;1.30;99.90;;;;;;4980754;28;20037;-72
2022/12/11 07:17:36;;;;;;;41.60;16.77;;;1.30;99.90;;;;;;4979474;28;20035;-72
2022/12/11 07:20:01;;;;;;;43.88;17.00;;;1.30;99.90;;;;;;4981450;28;20051;-73
2022/12/11 07:22:28;;;;;;;39.25;16.98;;;1.30;99.90;;;;;;4999041;28;20026;-73
2022/12/11 07:24:53;;;;;;;42.65;16.58;;;1.30;99.90;;;;;;4989427;28;20034;-73
2022/12/11 07:27:19;;;;;;;36.55;15.43;;;1.30;99.90;;;;;;4974054;28;20069;-72
2022/12/11 07:29:44;;;;;;;41.55;16.55;;;1.30;99.90;;;;;;4987260;28;20030;-73
2022/12/11 07:32:10;;;;;;;32.78;14.25;;;1.30;99.90;;;;;;5000481;28;20027;-72
2022/12/11 07:34:35;;;;;;;36.95;15.23;;;1.30;99.90;;;;;;4981419;28;20116;-72
2022/12/11 07:37:01;;;;;;;35.00;14.65;;;1.30;99.90;;;;;;4993905;28;20040;-72
2022/12/11 07:39:26;;;;;;;33.92;14.82;;;1.30;99.90;;;;;;4993822;28;20034;-72
2022/12/11 07:41:52;;;;;;;32.42;13.43;;;1.30;99.90;;;;;;4990223;28;20026;-73
2022/12/11 07:44:18;;;;;;;34.15;14.20;;;1.30;99.90;;;;;;4995088;28;20137;-72
2022/12/11 07:46:43;;;;;;;33.03;13.82;;;1.30;99.90;;;;;;4984593;28;20059;-73
2022/12/11 07:49:09;;;;;;;37.53;14.80;;;1.30;99.90;;;;;;4988720;28;20111;-72
2022/12/11 07:51:36;;;;;;;31.98;14.43;;;1.30;99.90;;;;;;4986037;28;20053;-72
2022/12/11 07:54:07;;;;;;;35.10;15.63;;;1.30;99.90;;;;;;4991771;28;20073;-72
2022/12/11 07:56:33;;;;;;;37.13;16.65;;;1.30;99.90;;;;;;4992608;28;20045;-72
2022/12/11 07:59:00;;;;;;;33.85;14.60;;;1.30;99.90;;;;;;4992901;28;20039;-72
2022/12/11 08:01:28;;;;;;;39.08;14.70;;;1.30;99.90;;;;;;4993681;28;20026;-72
2022/12/11 08:03:54;;;;;;;32.75;14.02;;;1.30;99.90;;;;;;4991362;28;20030;-72
2022/12/11 08:06:25;;;;;;;39.53;16.75;;;1.40;99.90;;;;;;4985347;28;20041;-72
2022/12/11 08:08:53;;;;;;;38.20;15.95;;;1.40;99.90;;;;;;4978225;28;20023;-72
2022/12/11 08:11:19;;;;;;;40.63;16.17;;;1.40;99.90;;;;;;4987913;28;20113;-72
2022/12/11 08:13:44;;;;;;;40.25;16.20;;;1.40;99.90;;;;;;4990171;28;20110;-72
2022/12/11 08:16:13;;;;;;;36.63;15.35;;;1.40;99.90;;;;;;4987125;28;20448;-73
2022/12/11 08:18:40;;;;;;;40.10;16.05;;;1.50;99.90;;;;;;4989611;28;20022;-73
2022/12/11 08:21:14;;;;;;;40.75;16.17;;;1.50;99.90;;;;;;4987513;28;20099;-73
2022/12/11 08:23:40;;;;;;;35.28;14.98;;;1.50;99.90;;;;;;4988963;28;20089;-72
2022/12/11 08:26:08;;;;;;;40.47;15.35;;;1.50;99.90;;;;;;5000724;28;20042;-72
2022/12/11 08:28:34;;;;;;;36.22;16.25;;;1.50;99.90;;;;;;4988845;28;20022;-73
2022/12/11 08:31:02;;;;;;;36.75;16.42;;;1.50;99.90;;;;;;4988466;28;20462;-73
2022/12/11 08:33:27;;;;;;;42.13;17.63;;;1.50;99.90;;;;;;4984896;28;20025;-72
2022/12/11 08:35:53;;;;;;;41.13;17.38;;;1.60;99.90;;;;;;4989549;28;20394;-73
2022/12/11 08:38:18;;;;;;;38.92;16.67;;;1.60;99.90;;;;;;4993893;28;20030;-73
2022/12/11 08:40:44;;;;;;;39.03;16.70;;;1.60;99.90;;;;;;4990770;28;20026;-73
2022/12/11 08:43:09;;;;;;;43.20;17.35;;;1.60;99.90;;;;;;4993528;28;20030;-73
2022/12/11 08:45:35;;;;;;;42.47;17.40;;;1.60;99.90;;;;;;5000896;28;20120;-73
2022/12/11 08:48:01;;;;;;;39.45;16.88;;;1.60;99.90;;;;;;5004066;28;20040;-73
2022/12/11 08:50:26;;;;;;;39.85;17.52;;;1.60;99.90;;;;;;4991985;28;20133;-73
2022/12/11 08:52:54;;;;;;;43.03;18.45;;;1.60;99.90;;;;;;4991462;28;20469;-73
2022/12/11 08:55:20;;;;;;;38.40;16.42;;;1.70;99.90;;;;;;4995284;28;20425;-74
2022/12/11 08:57:46;;;;;;;45.17;17.05;;;1.70;99.90;;;;;;5014117;28;20375;-73
2022/12/11 09:00:14;;;;;;;38.92;16.85;;;1.70;99.90;;;;;;4985737;28;20033;-73
2022/12/11 09:02:39;;;;;;;40.38;17.52;;;1.70;99.90;;;;;;4992149;28;20479;-73
2022/12/11 09:05:06;;;;;;;44.30;16.67;;;1.70;99.90;;;;;;4993895;28;20057;-73
2022/12/11 09:07:33;;;;;;;40.95;16.92;;;1.70;99.90;;;;;;4991876;28;20023;-73
2022/12/11 09:09:59;;;;;;;37.78;17.35;;;1.60;99.90;;;;;;4991435;28;20030;-73
2022/12/11 09:12:26;;;;;;;40.88;16.75;;;1.70;99.90;;;;;;4984388;28;20018;-73
2022/12/11 09:14:52;;;;;;;41.50;17.75;;;1.70;99.90;;;;;;4976059;28;20037;-73
2022/12/11 09:17:17;;;;;;;37.95;18.27;;;1.70;99.90;;;;;;4999826;28;20101;-74
2022/12/11 09:19:43;;;;;;;40.30;17.83;;;1.70;99.90;;;;;;4997860;28;20081;-73
2022/12/11 09:22:10;;;;;;;39.55;17.20;;;1.70;99.90;;;;;;4996838;28;20030;-73
2022/12/11 09:24:36;;;;;;;41.33;17.08;;;1.70;99.90;;;;;;4990563;28;20469;-74
2022/12/11 09:27:02;;;;;;;44.33;16.05;;;1.70;99.90;;;;;;4988575;28;20084;-73
2022/12/11 09:29:28;;;;;;;40.47;17.27;;;1.80;99.90;;;;;;4989070;28;20026;-73
2022/12/11 09:31:54;;;;;;;45.17;18.15;;;1.80;99.90;;;;;;4985672;28;20833;-73
2022/12/11 09:34:20;;;;;;;37.08;16.15;;;1.80;99.90;;;;;;4989946;28;20474;-73
2022/12/11 09:36:46;;;;;;;45.50;19.35;;;1.70;99.90;;;;;;4991477;28;20209;-73
2022/12/11 09:39:12;;;;;;;37.67;17.25;;;1.80;99.90;;;;;;4990077;28;20468;-73
2022/12/11 09:41:46;;;;;;;41.13;18.52;;;1.80;99.90;;;;;;4988164;28;20038;-73
2022/12/11 09:44:15;;;;;;;43.38;19.40;;;1.80;99.90;;;;;;4998672;28;20046;-73
2022/12/11 09:46:42;;;;;;;42.80;19.20;;;1.80;99.90;;;;;;4989906;28;20023;-73
2022/12/11 09:49:20;;;;;;;44.63;19.02;;;1.90;99.90;;;;;;4995107;28;20506;-73
2022/12/11 09:51:52;;;;;;;44.70;19.15;;;2.00;99.90;;;;;;5011216;28;20433;-74
2022/12/11 09:54:17;;;;;;;40.63;18.52;;;2.00;99.90;;;;;;4992040;28;20034;-73
2022/12/11 09:57:17;;;;;;;42.75;19.23;;;2.00;99.90;;;;;;4988419;28;20062;-73
2022/12/11 09:59:56;;;;;;;40.67;18.85;;;2.00;99.90;;;;;;4977017;28;20184;-73
2022/12/11 10:03:03;;;;;;;44.83;19.30;;;2.00;99.90;;;;;;4981516;28;20030;-72
2022/12/11 10:05:50;;;;;;;40.92;17.52;;;2.00;99.90;;;;;;4983195;28;20068;-73
2022/12/11 10:08:15;;;;;;;38.97;18.40;;;2.00;99.90;;;;;;4984848;28;20382;-73
2022/12/11 10:10:45;;;;;;;40.97;18.23;;;2.00;99.90;;;;;;4972766;28;20014;-73
2022/12/11 10:13:29;;;;;;;40.00;19.50;;;2.00;99.90;;;;;;4984986;28;20532;-73
2022/12/11 10:16:13;;;;;;;44.97;19.85;;;1.90;99.90;;;;;;4993863;28;20028;-73
2022/12/11 10:18:39;;;;;;;46.20;20.95;;;1.90;99.90;;;;;;4991579;28;20311;-73
2022/12/11 10:21:05;;;;;;;42.38;19.65;;;1.90;99.90;;;;;;4997553;28;20129;-73
2022/12/11 10:24:00;;;;;;;43.17;19.98;;;1.90;99.90;;;;;;4999485;28;20464;-73
2022/12/11 10:26:28;;;;;;;44.17;19.63;;;1.90;99.90;;;;;;4990767;28;20104;-73
2022/12/11 10:28:58;;;;;;;42.88;19.33;;;1.90;99.90;;;;;;4994360;28;20018;-73
2022/12/11 10:31:52;;;;;;;46.10;19.65;;;1.90;99.90;;;;;;4990848;28;20026;-73
2022/12/11 10:34:31;;;;;;;43.38;20.65;;;2.00;99.90;;;;;;4990766;28;20093;-73
2022/12/11 10:36:56;;;;;;;46.65;20.50;;;2.00;99.90;;;;;;4992557;28;20022;-73
2022/12/11 10:39:22;;;;;;;44.38;20.75;;;2.00;99.90;;;;;;4991914;28;20404;-73
2022/12/11 10:41:50;;;;;;;43.28;19.85;;;2.00;99.90;;;;;;4989645;28;20026;-73
2022/12/11 10:44:18;;;;;;;46.30;22.20;;;2.00;99.90;;;;;;5002676;28;20045;-73
2022/12/11 10:46:46;;;;;;;44.22;20.95;;;2.00;99.90;;;;;;4992336;28;20025;-74
2022/12/11 10:49:29;;;;;;;48.67;19.80;;;2.00;99.90;;;;;;4986740;28;20037;-74
2022/12/11 10:51:56;;;;;;;40.65;17.85;;;2.00;99.90;;;;;;4989205;28;20022;-74
2022/12/11 10:54:32;;;;;;;41.63;19.35;;;1.90;99.90;;;;;;4986571;28;20701;-74
2022/12/11 10:57:00;;;;;;;41.65;19.42;;;1.90;99.90;;;;;;5005226;28;20026;-72
2022/12/11 10:59:45;;;;;;;43.30;20.13;;;1.90;99.90;;;;;;4993766;28;20027;-72
2022/12/11 11:02:23;;;;;;;46.83;18.60;;;1.90;99.90;;;;;;4986515;28;20025;-72
2022/12/11 11:04:50;;;;;;;48.80;20.50;;;1.90;99.90;;;;;;5000171;28;20126;-72
2022/12/11 11:07:20;;;;;;;49.25;21.02;;;1.90;99.90;;;;;;4977664;28;20030;-72
2022/12/11 11:09:47;;;;;;;39.78;18.52;;;1.90;99.90;;;;;;4988992;28;20106;-72
2022/12/11 11:12:25;;;;;;;43.83;19.10;;;1.90;99.90;;;;;;4988569;28;20026;-72
2022/12/11 11:15:03;;;;;;;36.20;16.67;;;1.90;99.90;;;;;;5007190;28;20047;-72
2022/12/11 11:17:31;;;;;;;41.63;18.52;;;2.00;99.90;;;;;;4997854;28;20510;-72
2022/12/11 11:20:03;;;;;;;43.55;19.00;;;2.00;99.90;;;;;;4998982;28;20054;-72
2022/12/11 11:22:31;;;;;;;41.47;17.37;;;2.00;99.90;;;;;;4991185;28;20033;-74
2022/12/11 11:24:58;;;;;;;43.28;19.45;;;2.00;99.90;;;;;;5002803;28;20034;-72
2022/12/11 11:27:43;;;;;;;37.38;16.98;;;2.00;99.90;;;;;;5001191;28;20476;-72
2022/12/11 11:30:37;;;;;;;39.25;18.10;;;2.00;99.90;;;;;;4974429;28;20444;-72
2022/12/11 11:33:21;;;;;;;38.50;17.65;;;2.00;99.90;;;;;;4990388;28;20049;-72
2022/12/11 11:36:03;;;;;;;39.95;17.35;;;2.00;99.90;;;;;;4992939;28;20076;-73
2022/12/11 11:38:36;;;;;;;40.70;17.90;;;2.00;99.90;;;;;;4996215;28;20060;-72
2022/12/11 11:41:01;;;;;;;45.17;18.92;;;2.00;99.90;;;;;;4993372;28;20695;-72
2022/12/11 11:43:45;;;;;;;40.13;17.58;;;2.10;99.90;;;;;;4986922;28;20097;-73
2022/12/11 11:46:42;;;;;;;41.63;19.25;;;2.10;99.90;;;;;;5000868;28;20037;-72
2022/12/11 11:49:30;;;;;;;42.83;18.90;;;2.10;99.90;;;;;;4992420;28;20403;-72
2022/12/11 11:52:10;;;;;;;41.60;17.23;;;2.20;99.90;;;;;;5002886;28;20113;-72
2022/12/11 11:54:46;;;;;;;38.28;17.30;;;2.10;99.90;;;;;;4993862;28;20024;-72
2022/12/11 11:57:18;;;;;;;40.97;17.02;;;2.10;99.90;;;;;;5004728;28;20097;-73
2022/12/11 11:59:54;;;;;;;46.88;18.60;;;2.20;99.90;;;;;;4989824;28;20023;-72
2022/12/11 12:02:19;;;;;;;47.05;19.67;;;2.10;99.90;;;;;;4984970;28;20029;-72
2022/12/11 12:04:48;;;;;;;39.88;18.73;;;2.10;99.90;;;;;;4995153;28;20375;-72
2022/12/11 12:07:28;;;;;;;42.30;18.63;;;2.20;99.90;;;;;;4997355;28;20529;-72
2022/12/11 12:10:02;;;;;;;40.83;18.10;;;2.20;99.90;;;;;;4986513;28;20117;-72
2022/12/11 12:12:45;;;;;;;45.97;19.48;;;2.20;99.90;;;;;;4993048;28;20058;-72
2022/12/11 12:15:26;;;;;;;40.03;17.92;;;2.20;99.90;;;;;;4995595;28;20226;-72
2022/12/11 12:18:02;;;;;;;38.47;16.63;;;2.10;99.90;;;;;;4987623;28;20376;-72
2022/12/11 12:20:50;;;;;;;40.17;18.50;;;2.10;99.90;;;;;;4994918;28;20052;-72
2022/12/11 12:23:40;;;;;;;39.00;17.50;;;2.10;99.90;;;;;;4980442;28;20085;-73
2022/12/11 12:26:15;;;;;;;32.90;15.07;;;2.10;99.90;;;;;;4989042;28;20042;-72
2022/12/11 12:29:02;;;;;;;38.95;18.05;;;2.10;99.90;;;;;;4980560;28;20030;-73
2022/12/11 12:31:54;;;;;;;35.90;16.00;;;2.00;99.90;;;;;;4986484;28;20026;-72
2022/12/11 12:34:56;;;;;;;39.30;17.70;;;2.00;99.90;;;;;;4990319;28;20137;-72
2022/12/11 12:37:54;;;;;;;45.25;18.08;;;2.10;99.90;;;;;;4997048;28;20521;-72
2022/12/11 12:40:30;;;;;;;38.30;16.58;;;2.10;99.90;;;;;;4994448;28;20018;-72
2022/12/11 12:43:10;;;;;;;39.47;17.80;;;2.10;99.90;;;;;;4994123;28;20525;-72
2022/12/11 12:46:00;;;;;;;38.58;16.73;;;2.10;99.90;;;;;;4990723;28;20074;-72
2022/12/11 12:48:26;;;;;;;39.80;18.70;;;2.10;99.90;;;;;;4985101;28;20330;-73
2022/12/11 12:50:53;;;;;;;37.63;16.38;;;2.10;99.90;;;;;;5002417;28;20064;-72